Bradfords Cross Roads, North Carolina
Current Conditions -  °F | °C
As of 3:35 AM on Friday 31 Oct 2014 (Local Time) from KSVH Reporting Station
Scattered Clouds Scattered Clouds  
Wind Chill: 40°   Ceiling: Unl
Heat Index: 44°   Visibility: 10mi
Dew Point: 38°   Wind: 6mph
Humidity: 80%   Direction: 10°N
Pressure: 29.97"   Gusts: NA
Location:  35.8306°N, 80.9003°W
Report Text: KSVH 310735Z AUTO 01005KT 10SM SCT065 07/03 A2997 RMK AO2 T00650033
Loading
Personal Weather Stations






























Interactive Weather Map
Tropical Storm Tracking
New forecast layout! Learn more

10-Day Weather Forecast

Advertisements
Track Severe Weather on mobile